createdAt,value
2023-03-29T00:02:48.810Z,5.80
2023-03-29T00:05:57.829Z,5.69
2023-03-29T00:09:02.047Z,5.82
2023-03-29T00:12:06.328Z,5.80
2023-03-29T00:15:10.882Z,5.98
2023-03-29T00:18:14.614Z,6.06
2023-03-29T00:21:19.922Z,5.95
2023-03-29T00:24:24.104Z,5.84
2023-03-29T00:27:27.726Z,5.57
2023-03-29T00:30:31.394Z,5.73
2023-03-29T00:33:35.445Z,5.80
2023-03-29T00:36:41.241Z,5.87
2023-03-29T00:39:45.548Z,6.03
2023-03-29T00:42:49.365Z,5.90
2023-03-29T00:45:53.814Z,6.06
2023-03-29T00:49:04.082Z,6.00
2023-03-29T00:52:09.758Z,5.95
2023-03-29T00:55:19.312Z,5.94
2023-03-29T00:58:27.066Z,5.87
2023-03-29T01:01:35.424Z,6.03
2023-03-29T01:04:42.915Z,5.79
2023-03-29T01:07:55.183Z,5.79
2023-03-29T01:11:05.017Z,5.88
2023-03-29T01:14:15.469Z,5.96
2023-03-29T01:17:22.078Z,5.93
2023-03-29T01:20:35.121Z,5.92
2023-03-29T01:23:59.427Z,5.95
2023-03-29T01:27:12.773Z,5.80
2023-03-29T01:30:22.764Z,5.71
2023-03-29T01:33:32.932Z,5.52
2023-03-29T01:36:44.740Z,5.86
2023-03-29T01:39:48.419Z,5.70
2023-03-29T01:43:00.877Z,5.39
2023-03-29T01:46:12.098Z,5.56
2023-03-29T01:49:23.881Z,5.31
2023-03-29T01:52:33.666Z,5.42
2023-03-29T01:55:41.303Z,5.58
2023-03-29T01:58:47.829Z,5.56
2023-03-29T02:01:56.880Z,5.71
2023-03-29T02:05:04.401Z,5.50
2023-03-29T02:08:11.103Z,5.60
2023-03-29T02:11:15.379Z,5.42
2023-03-29T02:14:19.621Z,5.40
2023-03-29T02:17:25.988Z,5.41
2023-03-29T02:20:32.949Z,5.42
2023-03-29T02:23:41.713Z,5.38
2023-03-29T02:26:45.664Z,5.18
2023-03-29T02:29:49.593Z,5.47
2023-03-29T02:33:00.728Z,5.20
2023-03-29T02:36:10.677Z,5.36
2023-03-29T02:39:16.726Z,5.37
2023-03-29T02:42:21.335Z,5.54
2023-03-29T02:45:27.239Z,5.42
2023-03-29T02:48:35.369Z,5.33
2023-03-29T02:51:40.585Z,5.41
2023-03-29T02:58:08.970Z,5.29
2023-03-29T03:01:15.181Z,5.38
2023-03-29T03:04:21.226Z,5.46
2023-03-29T03:07:26.333Z,5.43
2023-03-29T03:10:30.335Z,5.40
2023-03-29T03:13:34.388Z,5.17
2023-03-29T03:16:38.855Z,5.19
2023-03-29T03:23:05.184Z,5.07
2023-03-29T03:26:10.997Z,5.15
2023-03-29T03:29:16.939Z,4.90
2023-03-29T03:32:43.756Z,4.87
2023-03-29T03:36:03.064Z,4.56
2023-03-29T03:39:07.987Z,5.13
2023-03-29T03:42:11.614Z,5.00
2023-03-29T03:45:18.664Z,5.09
2023-03-29T03:48:33.602Z,5.19
2023-03-29T03:52:08.005Z,5.02
2023-03-29T03:55:12.245Z,4.98
2023-03-29T03:58:20.480Z,5.19
2023-03-29T04:01:24.236Z,5.02
2023-03-29T04:04:38.221Z,4.85
2023-03-29T04:07:52.924Z,4.97
2023-03-29T04:11:34.654Z,4.94
2023-03-29T04:14:38.847Z,4.72
2023-03-29T04:17:46.261Z,4.68
2023-03-29T04:21:10.381Z,4.88
2023-03-29T04:24:16.536Z,4.54
2023-03-29T04:27:31.365Z,4.79
2023-03-29T04:30:38.622Z,4.79
2023-03-29T04:33:51.846Z,4.87
2023-03-29T04:36:56.724Z,4.68
2023-03-29T04:40:04.851Z,4.89
2023-03-29T04:43:22.821Z,4.97
2023-03-29T04:46:35.966Z,5.02
2023-03-29T04:49:48.659Z,5.01
2023-03-29T04:53:01.329Z,5.11
2023-03-29T04:56:08.591Z,5.10
2023-03-29T04:59:35.857Z,5.26
2023-03-29T05:02:49.090Z,5.21
2023-03-29T05:05:53.324Z,5.41
2023-03-29T05:08:58.032Z,5.33
2023-03-29T05:12:19.728Z,5.34
2023-03-29T05:15:30.556Z,5.38
2023-03-29T05:18:34.993Z,5.27
2023-03-29T05:21:41.706Z,5.43
2023-03-29T05:24:49.973Z,5.58
2023-03-29T05:27:56.804Z,5.65
2023-03-29T05:31:02.539Z,5.85
2023-03-29T05:34:07.254Z,5.96
2023-03-29T05:37:19.129Z,6.01
2023-03-29T05:40:31.774Z,6.20
2023-03-29T05:44:03.301Z,6.54
2023-03-29T05:47:08.102Z,6.68
2023-03-29T05:50:12.629Z,6.89
2023-03-29T05:53:16.924Z,6.81
2023-03-29T05:56:21.240Z,7.36
2023-03-29T05:59:28.762Z,7.43
2023-03-29T06:02:33.858Z,7.70
2023-03-29T06:05:38.028Z,7.62
2023-03-29T06:08:42.414Z,7.35
2023-03-29T06:12:02.104Z,7.67
2023-03-29T06:15:16.739Z,7.65
2023-03-29T06:18:24.883Z,7.93
2023-03-29T06:24:54.169Z,8.16
2023-03-29T06:28:04.805Z,8.30
2023-03-29T06:31:13.456Z,8.51
2023-03-29T06:34:18.076Z,8.35
2023-03-29T06:37:34.096Z,8.56
2023-03-29T06:40:53.266Z,8.86
2023-03-29T06:44:00.565Z,9.12
2023-03-29T06:47:13.187Z,8.88
2023-03-29T06:50:18.086Z,8.98
2023-03-29T06:53:40.069Z,9.28
2023-03-29T06:56:44.029Z,9.07
2023-03-29T06:59:51.693Z,9.59
2023-03-29T07:03:06.743Z,9.63
2023-03-29T07:06:12.486Z,9.12
2023-03-29T07:09:19.741Z,9.85
2023-03-29T07:12:58.564Z,9.75
2023-03-29T07:16:02.610Z,10.25
2023-03-29T07:19:30.439Z,10.12
2023-03-29T07:22:53.264Z,10.61
2023-03-29T07:25:57.525Z,11.03
2023-03-29T07:29:03.017Z,11.20
2023-03-29T07:32:07.591Z,11.46
2023-03-29T07:35:21.884Z,11.11
2023-03-29T07:38:26.562Z,10.72
2023-03-29T07:41:41.002Z,11.24
2023-03-29T07:44:49.981Z,11.22
2023-03-29T07:47:57.504Z,10.68
2023-03-29T07:51:05.782Z,11.29
2023-03-29T07:54:19.241Z,10.78
2023-03-29T07:57:50.562Z,10.60
2023-03-29T08:00:55.164Z,10.89
2023-03-29T08:04:19.207Z,11.01
2023-03-29T08:07:44.419Z,11.23
2023-03-29T08:11:14.580Z,11.33
2023-03-29T08:14:30.631Z,10.97
2023-03-29T08:17:50.476Z,11.06
2023-03-29T08:20:54.563Z,11.46
2023-03-29T08:24:00.153Z,11.67
2023-03-29T08:27:16.665Z,11.54
2023-03-29T08:30:20.944Z,11.49
2023-03-29T08:33:24.955Z,11.29
2023-03-29T08:36:49.091Z,11.57
2023-03-29T08:40:09.049Z,12.10
2023-03-29T08:43:54.507Z,11.92
2023-03-29T08:47:20.545Z,12.08
2023-03-29T08:50:32.366Z,12.48
2023-03-29T08:53:44.525Z,12.12
2023-03-29T08:57:13.710Z,11.95
2023-03-29T09:00:23.298Z,12.16
2023-03-29T09:03:31.852Z,12.26
2023-03-29T09:06:42.331Z,12.91
2023-03-29T09:10:16.242Z,12.68
2023-03-29T09:13:44.604Z,12.94
2023-03-29T09:16:57.465Z,12.59
2023-03-29T09:20:10.715Z,12.46
2023-03-29T09:23:53.176Z,12.64
2023-03-29T09:27:28.024Z,12.42
2023-03-29T09:30:53.163Z,12.41
2023-03-29T09:34:00.465Z,13.29
2023-03-29T09:37:22.447Z,12.80
2023-03-29T09:40:34.562Z,12.41
2023-03-29T09:43:46.592Z,13.02
2023-03-29T09:47:00.805Z,13.53
2023-03-29T09:50:27.326Z,13.60
2023-03-29T09:53:34.085Z,13.50
2023-03-29T09:56:54.026Z,13.38
2023-03-29T10:00:02.139Z,13.60
2023-03-29T10:03:22.695Z,13.53
2023-03-29T10:06:49.884Z,13.18
2023-03-29T10:09:57.424Z,13.83
2023-03-29T10:13:05.601Z,13.15
2023-03-29T10:16:18.576Z,13.22
2023-03-29T10:19:25.683Z,12.80
2023-03-29T10:22:34.943Z,13.15
2023-03-29T10:25:42.759Z,12.47
2023-03-29T10:28:47.108Z,13.36
2023-03-29T10:31:51.807Z,13.09
2023-03-29T10:35:01.802Z,13.31
2023-03-29T10:38:10.790Z,13.57
2023-03-29T10:41:16.169Z,13.50
2023-03-29T10:44:33.252Z,13.90
2023-03-29T10:47:37.377Z,13.89
2023-03-29T10:50:43.195Z,13.89
2023-03-29T10:53:47.449Z,13.76
2023-03-29T10:56:55.361Z,14.32
2023-03-29T11:00:07.286Z,14.03
2023-03-29T11:03:31.145Z,14.48
2023-03-29T11:06:43.032Z,14.74
2023-03-29T11:09:55.862Z,14.61
2023-03-29T11:13:08.783Z,14.52
2023-03-29T11:16:26.039Z,14.33
2023-03-29T11:19:52.284Z,14.68
2023-03-29T11:23:07.068Z,15.26
2023-03-29T11:26:18.241Z,15.40
2023-03-29T11:29:27.822Z,15.04
2023-03-29T11:32:40.559Z,14.53
2023-03-29T11:35:54.134Z,15.22
2023-03-29T11:39:09.894Z,15.30
2023-03-29T11:42:18.610Z,15.10
2023-03-29T11:45:30.150Z,14.88
2023-03-29T11:48:39.002Z,14.91
2023-03-29T11:51:46.543Z,15.09
2023-03-29T11:54:56.323Z,14.98
2023-03-29T11:58:04.096Z,14.76
2023-03-29T12:01:13.185Z,14.66
2023-03-29T12:04:23.198Z,15.09
2023-03-29T12:07:33.766Z,15.25
2023-03-29T12:10:44.299Z,14.73
2023-03-29T12:13:54.040Z,15.15
2023-03-29T12:17:02.539Z,15.27
2023-03-29T12:20:14.801Z,14.80
2023-03-29T12:23:21.763Z,15.10
2023-03-29T12:26:45.939Z,15.03
2023-03-29T12:30:09.949Z,14.96
2023-03-29T12:33:40.745Z,14.78
2023-03-29T12:37:26.428Z,14.69
2023-03-29T12:40:55.748Z,15.08
2023-03-29T12:44:37.047Z,14.71
2023-03-29T12:47:53.592Z,14.80
2023-03-29T12:51:02.484Z,15.03
2023-03-29T12:54:11.911Z,15.34
2023-03-29T12:57:27.834Z,15.41
2023-03-29T13:00:45.383Z,15.14
2023-03-29T13:03:52.042Z,15.19
2023-03-29T13:07:03.564Z,15.52
2023-03-29T13:10:30.095Z,15.63
2023-03-29T13:13:37.545Z,15.14
2023-03-29T13:16:44.672Z,15.49
2023-03-29T13:19:54.724Z,15.57
2023-03-29T13:23:14.155Z,15.68
2023-03-29T13:26:36.865Z,15.29
2023-03-29T13:29:58.402Z,15.81
2023-03-29T13:33:33.844Z,15.64
2023-03-29T13:36:50.145Z,15.40
2023-03-29T13:39:55.686Z,15.54
2023-03-29T13:43:01.594Z,15.68
2023-03-29T13:46:25.146Z,15.98
2023-03-29T13:49:34.272Z,16.07
2023-03-29T13:52:42.904Z,16.00
2023-03-29T13:55:51.377Z,15.50
2023-03-29T13:58:59.110Z,15.43
2023-03-29T14:02:06.923Z,15.42
2023-03-29T14:05:17.222Z,15.61
2023-03-29T14:08:26.710Z,15.68
2023-03-29T14:11:32.365Z,15.63
2023-03-29T14:14:42.634Z,15.58
2023-03-29T14:18:00.359Z,14.97
2023-03-29T14:21:07.336Z,15.08
2023-03-29T14:24:14.028Z,14.70
2023-03-29T14:27:19.428Z,14.78
2023-03-29T14:30:29.588Z,14.55
2023-03-29T14:33:37.607Z,14.94
2023-03-29T14:36:44.178Z,15.06
2023-03-29T14:39:48.246Z,15.37
2023-03-29T14:42:52.686Z,15.69
2023-03-29T14:45:57.065Z,15.60
2023-03-29T14:49:02.422Z,15.77
2023-03-29T14:52:08.325Z,15.97
2023-03-29T14:55:14.444Z,15.83
2023-03-29T14:58:23.604Z,15.84
2023-03-29T15:01:28.234Z,15.86
2023-03-29T15:04:36.041Z,15.83
2023-03-29T15:07:45.282Z,15.68
2023-03-29T15:10:49.444Z,15.61
2023-03-29T15:14:02.495Z,15.45
2023-03-29T15:17:18.344Z,15.38
2023-03-29T15:20:26.302Z,14.95
2023-03-29T15:23:39.665Z,14.80
2023-03-29T15:26:43.635Z,14.91
2023-03-29T15:29:48.743Z,15.04
2023-03-29T15:32:55.044Z,15.10
2023-03-29T15:35:59.084Z,14.88
2023-03-29T15:39:04.646Z,14.31
2023-03-29T15:42:10.143Z,14.07
2023-03-29T15:45:18.488Z,14.20
2023-03-29T15:48:24.797Z,14.23
2023-03-29T15:51:28.729Z,14.22
2023-03-29T15:54:35.206Z,14.10
2023-03-29T15:57:39.745Z,14.02
2023-03-29T16:00:46.466Z,13.79
2023-03-29T16:03:50.485Z,13.58
2023-03-29T16:06:56.482Z,13.63
2023-03-29T16:10:02.017Z,13.51
2023-03-29T16:13:06.046Z,13.49
2023-03-29T16:16:12.257Z,13.57
2023-03-29T16:19:16.284Z,13.51
2023-03-29T16:22:20.124Z,13.36
2023-03-29T16:25:25.857Z,13.16
2023-03-29T16:28:30.042Z,13.07
2023-03-29T16:31:34.213Z,13.02
2023-03-29T16:34:38.488Z,12.76
2023-03-29T16:37:42.342Z,12.77
2023-03-29T16:40:47.859Z,12.81
2023-03-29T16:43:52.006Z,12.51
2023-03-29T16:46:58.308Z,12.58
2023-03-29T16:50:02.191Z,12.62
2023-03-29T16:53:06.322Z,12.61
2023-03-29T16:56:12.321Z,12.57
2023-03-29T16:59:16.820Z,12.27
2023-03-29T17:02:20.779Z,12.06
2023-03-29T17:05:25.606Z,12.34
2023-03-29T17:08:29.604Z,12.27
2023-03-29T17:11:35.265Z,12.30
2023-03-29T17:14:39.659Z,12.22
2023-03-29T17:17:43.966Z,12.28
2023-03-29T17:20:48.150Z,12.13
2023-03-29T17:23:52.120Z,12.19
2023-03-29T17:26:58.119Z,12.15
2023-03-29T17:30:02.039Z,12.14
2023-03-29T17:33:08.359Z,12.01
2023-03-29T17:36:13.117Z,11.91
2023-03-29T17:39:18.932Z,11.81
2023-03-29T17:42:24.301Z,11.83
2023-03-29T17:45:28.280Z,11.91
2023-03-29T17:48:33.171Z,11.82
2023-03-29T17:51:37.040Z,11.93
2023-03-29T17:54:41.105Z,11.77
2023-03-29T17:57:46.363Z,11.76
2023-03-29T18:00:50.293Z,11.87
2023-03-29T18:03:54.214Z,11.73
2023-03-29T18:06:58.140Z,11.69
2023-03-29T18:10:02.068Z,11.54
2023-03-29T18:13:07.383Z,11.46
2023-03-29T18:16:12.308Z,11.42
2023-03-29T18:19:16.230Z,11.28
2023-03-29T18:22:21.114Z,11.18
2023-03-29T18:25:25.466Z,11.11
2023-03-29T18:28:31.190Z,11.20
2023-03-29T18:31:35.524Z,11.22
2023-03-29T18:34:40.124Z,11.22
2023-03-29T18:37:44.064Z,11.14
2023-03-29T18:40:48.146Z,10.90
2023-03-29T18:43:57.509Z,10.82
2023-03-29T18:47:01.354Z,10.81
2023-03-29T18:50:05.872Z,10.85
2023-03-29T18:53:09.641Z,10.67
2023-03-29T18:56:13.632Z,10.75
2023-03-29T18:59:19.050Z,10.65
2023-03-29T19:02:23.040Z,10.45
2023-03-29T19:05:26.954Z,10.22
2023-03-29T19:08:32.688Z,10.49
2023-03-29T19:11:37.171Z,10.24
2023-03-29T19:14:42.590Z,10.44
2023-03-29T19:17:46.556Z,10.45
2023-03-29T19:20:51.257Z,10.53
2023-03-29T19:23:55.389Z,10.48
2023-03-29T19:26:59.354Z,10.25
2023-03-29T19:30:05.474Z,10.14
2023-03-29T19:33:09.490Z,10.04
2023-03-29T19:36:13.670Z,10.10
2023-03-29T19:39:17.788Z,10.05
2023-03-29T19:42:21.672Z,9.93
2023-03-29T19:45:28.189Z,10.06
2023-03-29T19:48:32.202Z,9.93
2023-03-29T19:51:36.341Z,9.93
2023-03-29T19:54:40.581Z,10.00
2023-03-29T19:57:44.459Z,9.55
2023-03-29T20:00:51.011Z,9.84
2023-03-29T20:03:55.655Z,9.49
2023-03-29T20:06:59.801Z,9.29
2023-03-29T20:10:04.084Z,9.50
2023-03-29T20:13:07.999Z,9.35
2023-03-29T20:16:15.134Z,9.49
2023-03-29T20:19:19.500Z,9.67
2023-03-29T20:22:26.491Z,9.80
2023-03-29T20:25:30.540Z,9.70
2023-03-29T20:28:34.561Z,9.60
2023-03-29T20:31:40.063Z,9.69
2023-03-29T20:34:44.081Z,9.79
2023-03-29T20:37:47.926Z,9.82
2023-03-29T20:40:51.801Z,9.80
2023-03-29T20:44:00.158Z,9.58
2023-03-29T20:47:08.436Z,9.80
2023-03-29T20:50:12.802Z,9.77
2023-03-29T20:53:18.539Z,9.80
2023-03-29T20:56:22.530Z,9.92
2023-03-29T20:59:27.904Z,9.84
2023-03-29T21:02:33.501Z,10.03
2023-03-29T21:05:37.546Z,9.91
2023-03-29T21:08:42.903Z,9.95
2023-03-29T21:11:47.283Z,9.96
2023-03-29T21:14:51.671Z,9.85
2023-03-29T21:17:57.180Z,9.91
2023-03-29T21:21:01.336Z,9.87
2023-03-29T21:24:05.425Z,9.83
2023-03-29T21:27:09.477Z,9.93
2023-03-29T21:30:13.806Z,10.01
2023-03-29T21:33:19.321Z,9.88
2023-03-29T21:36:23.290Z,9.95
2023-03-29T21:39:27.665Z,9.88
2023-03-29T21:42:31.560Z,9.68
2023-03-29T21:45:35.450Z,9.53
2023-03-29T21:48:41.988Z,9.78
2023-03-29T21:51:46.862Z,9.70
2023-03-29T21:54:50.901Z,9.75
2023-03-29T21:57:54.922Z,9.88
2023-03-29T22:00:58.906Z,9.65
2023-03-29T22:04:04.484Z,9.89
2023-03-29T22:07:08.696Z,9.60
2023-03-29T22:10:14.287Z,9.83
2023-03-29T22:13:18.769Z,9.43
2023-03-29T22:16:25.960Z,9.41
2023-03-29T22:19:31.465Z,9.44
2023-03-29T22:22:35.405Z,9.45
2023-03-29T22:25:39.287Z,9.53
2023-03-29T22:28:43.510Z,9.58
2023-03-29T22:31:47.312Z,9.57
2023-03-29T22:34:52.969Z,9.51
2023-03-29T22:37:57.135Z,9.37
2023-03-29T22:41:01.106Z,9.40
2023-03-29T22:44:05.022Z,9.35
2023-03-29T22:47:09.011Z,9.41
2023-03-29T22:50:14.516Z,9.44
2023-03-29T22:53:18.375Z,9.44
2023-03-29T22:56:22.422Z,9.40
2023-03-29T22:59:27.303Z,9.28
2023-03-29T23:02:31.442Z,9.46
2023-03-29T23:05:36.782Z,9.51
2023-03-29T23:08:40.684Z,9.36
2023-03-29T23:11:44.641Z,9.11
2023-03-29T23:14:48.472Z,9.26
2023-03-29T23:17:52.347Z,9.28
2023-03-29T23:20:59.360Z,9.32
2023-03-29T23:24:03.325Z,9.46
2023-03-29T23:27:07.961Z,9.34
2023-03-29T23:30:12.440Z,9.17
2023-03-29T23:33:16.302Z,9.07
2023-03-29T23:36:23.283Z,9.13
2023-03-29T23:39:27.180Z,9.22
2023-03-29T23:42:31.648Z,9.33
2023-03-29T23:45:37.731Z,9.39
2023-03-29T23:48:41.863Z,9.33
2023-03-29T23:51:48.602Z,9.36
2023-03-29T23:54:52.822Z,9.08
2023-03-29T23:57:56.866Z,9.16
